sensor_id;sensor_type;location;lat;lon;timestamp;P1;durP1;ratioP1;P2;durP2;ratioP2
50709;SDS011;37033;49.994;21.992;2022-11-15T00:02:53;13.60;;;7.60;;
50709;SDS011;37033;49.994;21.992;2022-11-15T00:05:43;13.10;;;8.10;;
50709;SDS011;37033;49.994;21.992;2022-11-15T00:08:33;24.50;;;8.10;;
50709;SDS011;37033;49.994;21.992;2022-11-15T00:11:23;15.00;;;7.80;;
50709;SDS011;37033;49.994;21.992;2022-11-15T00:14:13;13.30;;;7.50;;
50709;SDS011;37033;49.994;21.992;2022-11-15T00:17:03;12.50;;;7.50;;
50709;SDS011;37033;49.994;21.992;2022-11-15T00:19:53;14.10;;;8.00;;
50709;SDS011;37033;49.994;21.992;2022-11-15T00:22:43;18.00;;;7.80;;
50709;SDS011;37033;49.994;21.992;2022-11-15T00:25:33;11.60;;;6.90;;
50709;SDS011;37033;49.994;21.992;2022-11-15T00:28:24;14.20;;;7.40;;
50709;SDS011;37033;49.994;21.992;2022-11-15T00:31:14;13.90;;;6.80;;
50709;SDS011;37033;49.994;21.992;2022-11-15T00:34:04;12.50;;;6.50;;
50709;SDS011;37033;49.994;21.992;2022-11-15T00:36:54;10.40;;;6.60;;
50709;SDS011;37033;49.994;21.992;2022-11-15T00:39:43;11.30;;;7.30;;
50709;SDS011;37033;49.994;21.992;2022-11-15T00:42:33;10.20;;;6.50;;
50709;SDS011;37033;49.994;21.992;2022-11-15T00:45:23;11.20;;;6.40;;
50709;SDS011;37033;49.994;21.992;2022-11-15T00:48:12;12.70;;;6.10;;
50709;SDS011;37033;49.994;21.992;2022-11-15T00:51:03;13.70;;;7.10;;
50709;SDS011;37033;49.994;21.992;2022-11-15T00:53:54;13.30;;;6.90;;
50709;SDS011;37033;49.994;21.992;2022-11-15T00:56:43;9.50;;;6.50;;
50709;SDS011;37033;49.994;21.992;2022-11-15T00:59:33;13.80;;;6.20;;
50709;SDS011;37033;49.994;21.992;2022-11-15T01:02:23;15.80;;;6.70;;
50709;SDS011;37033;49.994;21.992;2022-11-15T01:05:14;13.80;;;6.70;;
50709;SDS011;37033;49.994;21.992;2022-11-15T01:08:05;15.20;;;6.10;;
50709;SDS011;37033;49.994;21.992;2022-11-15T01:11:01;9.50;;;5.70;;
50709;SDS011;37033;49.994;21.992;2022-11-15T01:13:52;10.10;;;6.20;;
50709;SDS011;37033;49.994;21.992;2022-11-15T01:16:42;9.80;;;6.10;;
50709;SDS011;37033;49.994;21.992;2022-11-15T01:19:32;7.70;;;5.80;;
50709;SDS011;37033;49.994;21.992;2022-11-15T01:22:22;13.50;;;5.90;;
50709;SDS011;37033;49.994;21.992;2022-11-15T01:25:11;9.70;;;5.70;;
50709;SDS011;37033;49.994;21.992;2022-11-15T01:28:03;11.50;;;6.30;;
50709;SDS011;37033;49.994;21.992;2022-11-15T01:30:53;12.60;;;7.30;;
50709;SDS011;37033;49.994;21.992;2022-11-15T01:33:45;11.10;;;6.50;;
50709;SDS011;37033;49.994;21.992;2022-11-15T01:36:35;8.40;;;5.60;;
50709;SDS011;37033;49.994;21.992;2022-11-15T01:39:28;13.70;;;6.30;;
50709;SDS011;37033;49.994;21.992;2022-11-15T01:42:17;8.00;;;5.90;;
50709;SDS011;37033;49.994;21.992;2022-11-15T01:45:09;9.20;;;6.20;;
50709;SDS011;37033;49.994;21.992;2022-11-15T01:48:04;6.90;;;5.00;;
50709;SDS011;37033;49.994;21.992;2022-11-15T01:50:57;17.20;;;5.70;;
50709;SDS011;37033;49.994;21.992;2022-11-15T01:53:48;12.30;;;5.60;;
50709;SDS011;37033;49.994;21.992;2022-11-15T01:56:43;11.80;;;5.80;;
50709;SDS011;37033;49.994;21.992;2022-11-15T01:59:39;8.70;;;5.50;;
50709;SDS011;37033;49.994;21.992;2022-11-15T02:02:31;8.40;;;5.90;;
50709;SDS011;37033;49.994;21.992;2022-11-15T02:05:24;8.00;;;4.90;;
50709;SDS011;37033;49.994;21.992;2022-11-15T02:08:13;11.00;;;5.90;;
50709;SDS011;37033;49.994;21.992;2022-11-15T02:11:08;8.40;;;5.80;;
50709;SDS011;37033;49.994;21.992;2022-11-15T02:13:58;8.50;;;6.20;;
50709;SDS011;37033;49.994;21.992;2022-11-15T02:16:52;10.40;;;5.20;;
50709;SDS011;37033;49.994;21.992;2022-11-15T02:19:53;14.10;;;6.30;;
50709;SDS011;37033;49.994;21.992;2022-11-15T02:23:20;16.00;;;5.00;;
50709;SDS011;37033;49.994;21.992;2022-11-15T02:26:45;8.60;;;5.00;;
50709;SDS011;37033;49.994;21.992;2022-11-15T02:30:02;8.80;;;4.40;;
50709;SDS011;37033;49.994;21.992;2022-11-15T02:33:03;19.50;;;5.70;;
50709;SDS011;37033;49.994;21.992;2022-11-15T02:36:05;10.70;;;5.30;;
50709;SDS011;37033;49.994;21.992;2022-11-15T02:39:02;9.70;;;4.70;;
50709;SDS011;37033;49.994;21.992;2022-11-15T02:42:00;6.80;;;5.50;;
50709;SDS011;37033;49.994;21.992;2022-11-15T02:45:16;7.40;;;5.40;;
50709;SDS011;37033;49.994;21.992;2022-11-15T02:48:11;19.10;;;5.30;;
50709;SDS011;37033;49.994;21.992;2022-11-15T02:51:03;10.60;;;5.10;;
50709;SDS011;37033;49.994;21.992;2022-11-15T02:53:53;6.60;;;4.60;;
50709;SDS011;37033;49.994;21.992;2022-11-15T02:56:43;34.30;;;6.90;;
50709;SDS011;37033;49.994;21.992;2022-11-15T02:59:39;10.90;;;4.60;;
50709;SDS011;37033;49.994;21.992;2022-11-15T03:02:59;4.70;;;3.80;;
50709;SDS011;37033;49.994;21.992;2022-11-15T03:06:05;6.20;;;4.60;;
50709;SDS011;37033;49.994;21.992;2022-11-15T03:09:04;6.60;;;4.30;;
50709;SDS011;37033;49.994;21.992;2022-11-15T03:12:07;6.50;;;4.80;;
50709;SDS011;37033;49.994;21.992;2022-11-15T03:15:04;6.70;;;4.00;;
50709;SDS011;37033;49.994;21.992;2022-11-15T03:17:59;10.40;;;4.40;;
50709;SDS011;37033;49.994;21.992;2022-11-15T03:20:52;10.70;;;4.40;;
50709;SDS011;37033;49.994;21.992;2022-11-15T03:23:45;5.80;;;4.40;;
50709;SDS011;37033;49.994;21.992;2022-11-15T03:26:39;12.40;;;4.40;;
50709;SDS011;37033;49.994;21.992;2022-11-15T03:29:33;18.70;;;4.20;;
50709;SDS011;37033;49.994;21.992;2022-11-15T03:32:28;16.00;;;4.30;;
50709;SDS011;37033;49.994;21.992;2022-11-15T03:35:20;13.40;;;4.00;;
50709;SDS011;37033;49.994;21.992;2022-11-15T03:38:14;12.40;;;4.00;;
50709;SDS011;37033;49.994;21.992;2022-11-15T03:41:08;11.40;;;4.80;;
50709;SDS011;37033;49.994;21.992;2022-11-15T03:44:07;12.70;;;4.40;;
50709;SDS011;37033;49.994;21.992;2022-11-15T03:47:02;7.00;;;4.70;;
50709;SDS011;37033;49.994;21.992;2022-11-15T03:49:57;8.40;;;4.00;;
50709;SDS011;37033;49.994;21.992;2022-11-15T03:52:50;11.40;;;4.10;;
50709;SDS011;37033;49.994;21.992;2022-11-15T03:55:42;4.30;;;3.70;;
50709;SDS011;37033;49.994;21.992;2022-11-15T03:58:32;5.60;;;3.70;;
50709;SDS011;37033;49.994;21.992;2022-11-15T04:01:22;6.20;;;3.80;;
50709;SDS011;37033;49.994;21.992;2022-11-15T04:04:12;9.40;;;3.70;;
50709;SDS011;37033;49.994;21.992;2022-11-15T04:07:02;21.30;;;4.10;;
50709;SDS011;37033;49.994;21.992;2022-11-15T04:09:53;11.40;;;4.60;;
50709;SDS011;37033;49.994;21.992;2022-11-15T04:12:52;10.60;;;3.80;;
50709;SDS011;37033;49.994;21.992;2022-11-15T04:15:42;11.70;;;3.00;;
50709;SDS011;37033;49.994;21.992;2022-11-15T04:18:32;3.60;;;3.00;;
50709;SDS011;37033;49.994;21.992;2022-11-15T04:21:22;14.10;;;3.70;;
50709;SDS011;37033;49.994;21.992;2022-11-15T04:24:32;7.80;;;3.70;;
50709;SDS011;37033;49.994;21.992;2022-11-15T04:27:22;4.70;;;3.40;;
50709;SDS011;37033;49.994;21.992;2022-11-15T04:30:12;8.70;;;3.40;;
50709;SDS011;37033;49.994;21.992;2022-11-15T04:33:03;10.20;;;3.60;;
50709;SDS011;37033;49.994;21.992;2022-11-15T04:35:52;8.60;;;3.90;;
50709;SDS011;37033;49.994;21.992;2022-11-15T04:39:00;13.70;;;3.80;;
50709;SDS011;37033;49.994;21.992;2022-11-15T04:41:50;3.60;;;3.20;;
50709;SDS011;37033;49.994;21.992;2022-11-15T04:44:41;6.50;;;4.20;;
50709;SDS011;37033;49.994;21.992;2022-11-15T04:47:31;4.50;;;3.40;;
50709;SDS011;37033;49.994;21.992;2022-11-15T04:50:21;5.30;;;3.50;;
50709;SDS011;37033;49.994;21.992;2022-11-15T04:53:11;109.00;;;52.70;;
50709;SDS011;37033;49.994;21.992;2022-11-15T04:56:01;99.80;;;50.00;;
50709;SDS011;37033;49.994;21.992;2022-11-15T04:58:52;12.00;;;7.40;;
50709;SDS011;37033;49.994;21.992;2022-11-15T05:01:42;5.60;;;4.20;;
50709;SDS011;37033;49.994;21.992;2022-11-15T05:04:33;16.40;;;4.90;;
50709;SDS011;37033;49.994;21.992;2022-11-15T05:07:23;7.70;;;3.70;;
50709;SDS011;37033;49.994;21.992;2022-11-15T05:10:13;4.80;;;3.40;;
50709;SDS011;37033;49.994;21.992;2022-11-15T05:13:04;5.10;;;3.70;;
50709;SDS011;37033;49.994;21.992;2022-11-15T05:15:54;6.90;;;4.20;;
50709;SDS011;37033;49.994;21.992;2022-11-15T05:18:44;6.70;;;4.00;;
50709;SDS011;37033;49.994;21.992;2022-11-15T05:21:34;7.40;;;3.40;;
50709;SDS011;37033;49.994;21.992;2022-11-15T05:24:25;9.70;;;4.60;;
50709;SDS011;37033;49.994;21.992;2022-11-15T05:27:15;7.20;;;3.80;;
50709;SDS011;37033;49.994;21.992;2022-11-15T05:30:05;5.00;;;3.90;;
50709;SDS011;37033;49.994;21.992;2022-11-15T05:32:56;10.80;;;4.70;;
50709;SDS011;37033;49.994;21.992;2022-11-15T05:35:48;6.30;;;4.10;;
50709;SDS011;37033;49.994;21.992;2022-11-15T05:38:45;8.90;;;5.10;;
50709;SDS011;37033;49.994;21.992;2022-11-15T05:41:37;6.10;;;4.50;;
50709;SDS011;37033;49.994;21.992;2022-11-15T05:44:31;5.30;;;3.90;;
50709;SDS011;37033;49.994;21.992;2022-11-15T05:47:23;5.90;;;4.20;;
50709;SDS011;37033;49.994;21.992;2022-11-15T05:50:17;5.80;;;4.40;;
50709;SDS011;37033;49.994;21.992;2022-11-15T05:53:08;5.80;;;4.40;;
50709;SDS011;37033;49.994;21.992;2022-11-15T05:56:01;8.70;;;4.70;;
50709;SDS011;37033;49.994;21.992;2022-11-15T05:58:53;5.00;;;3.80;;
50709;SDS011;37033;49.994;21.992;2022-11-15T06:01:46;6.40;;;4.20;;
50709;SDS011;37033;49.994;21.992;2022-11-15T06:04:36;9.30;;;4.70;;
50709;SDS011;37033;49.994;21.992;2022-11-15T06:07:26;5.20;;;3.70;;
50709;SDS011;37033;49.994;21.992;2022-11-15T06:10:16;6.10;;;3.90;;
50709;SDS011;37033;49.994;21.992;2022-11-15T06:13:06;6.90;;;3.70;;
50709;SDS011;37033;49.994;21.992;2022-11-15T06:15:56;6.70;;;4.20;;
50709;SDS011;37033;49.994;21.992;2022-11-15T06:18:46;5.60;;;3.90;;
50709;SDS011;37033;49.994;21.992;2022-11-15T06:21:36;5.90;;;4.00;;
50709;SDS011;37033;49.994;21.992;2022-11-15T06:24:26;6.80;;;4.20;;
50709;SDS011;37033;49.994;21.992;2022-11-15T06:27:17;13.00;;;4.40;;
50709;SDS011;37033;49.994;21.992;2022-11-15T06:30:09;6.00;;;4.80;;
50709;SDS011;37033;49.994;21.992;2022-11-15T06:33:02;10.90;;;5.00;;
50709;SDS011;37033;49.994;21.992;2022-11-15T06:35:53;8.80;;;5.50;;
50709;SDS011;37033;49.994;21.992;2022-11-15T06:38:43;9.90;;;5.10;;
50709;SDS011;37033;49.994;21.992;2022-11-15T06:41:34;8.30;;;5.00;;
50709;SDS011;37033;49.994;21.992;2022-11-15T06:44:25;10.70;;;4.60;;
50709;SDS011;37033;49.994;21.992;2022-11-15T06:47:14;9.40;;;5.20;;
50709;SDS011;37033;49.994;21.992;2022-11-15T06:50:06;9.80;;;4.50;;
50709;SDS011;37033;49.994;21.992;2022-11-15T06:52:58;11.80;;;5.40;;
50709;SDS011;37033;49.994;21.992;2022-11-15T06:55:52;11.20;;;5.70;;
50709;SDS011;37033;49.994;21.992;2022-11-15T06:58:45;8.40;;;6.00;;
50709;SDS011;37033;49.994;21.992;2022-11-15T07:01:36;10.50;;;6.20;;
50709;SDS011;37033;49.994;21.992;2022-11-15T07:04:26;12.10;;;6.80;;
50709;SDS011;37033;49.994;21.992;2022-11-15T07:07:16;9.30;;;6.90;;
50709;SDS011;37033;49.994;21.992;2022-11-15T07:10:07;11.80;;;7.60;;
50709;SDS011;37033;49.994;21.992;2022-11-15T07:12:57;12.00;;;6.60;;
50709;SDS011;37033;49.994;21.992;2022-11-15T07:15:47;12.60;;;7.20;;
50709;SDS011;37033;49.994;21.992;2022-11-15T07:18:38;7.40;;;6.40;;
50709;SDS011;37033;49.994;21.992;2022-11-15T07:21:28;13.40;;;7.30;;
50709;SDS011;37033;49.994;21.992;2022-11-15T07:24:18;9.00;;;6.70;;
50709;SDS011;37033;49.994;21.992;2022-11-15T07:27:08;9.20;;;6.60;;
50709;SDS011;37033;49.994;21.992;2022-11-15T07:29:58;12.00;;;6.90;;
50709;SDS011;37033;49.994;21.992;2022-11-15T07:32:48;10.00;;;6.90;;
50709;SDS011;37033;49.994;21.992;2022-11-15T07:35:42;8.80;;;6.00;;
50709;SDS011;37033;49.994;21.992;2022-11-15T07:38:36;9.10;;;6.90;;
50709;SDS011;37033;49.994;21.992;2022-11-15T07:41:26;13.90;;;7.80;;
50709;SDS011;37033;49.994;21.992;2022-11-15T07:44:16;10.90;;;7.50;;
50709;SDS011;37033;49.994;21.992;2022-11-15T07:47:06;13.50;;;7.80;;
50709;SDS011;37033;49.994;21.992;2022-11-15T07:49:56;14.00;;;7.10;;
50709;SDS011;37033;49.994;21.992;2022-11-15T07:52:45;11.50;;;7.40;;
50709;SDS011;37033;49.994;21.992;2022-11-15T07:55:36;11.60;;;7.70;;
50709;SDS011;37033;49.994;21.992;2022-11-15T07:58:28;15.60;;;8.30;;
50709;SDS011;37033;49.994;21.992;2022-11-15T08:01:17;14.60;;;8.90;;
50709;SDS011;37033;49.994;21.992;2022-11-15T08:04:09;15.20;;;9.00;;
50709;SDS011;37033;49.994;21.992;2022-11-15T08:06:59;18.10;;;9.90;;
50709;SDS011;37033;49.994;21.992;2022-11-15T08:09:49;19.80;;;10.20;;
50709;SDS011;37033;49.994;21.992;2022-11-15T08:12:39;17.40;;;9.20;;
50709;SDS011;37033;49.994;21.992;2022-11-15T08:15:29;10.50;;;8.10;;
50709;SDS011;37033;49.994;21.992;2022-11-15T08:18:19;14.80;;;7.80;;
50709;SDS011;37033;49.994;21.992;2022-11-15T08:21:10;13.80;;;8.10;;
50709;SDS011;37033;49.994;21.992;2022-11-15T08:24:03;17.10;;;9.40;;
50709;SDS011;37033;49.994;21.992;2022-11-15T08:26:53;13.90;;;9.90;;
50709;SDS011;37033;49.994;21.992;2022-11-15T08:29:43;14.40;;;9.00;;
50709;SDS011;37033;49.994;21.992;2022-11-15T08:32:35;22.90;;;11.10;;
50709;SDS011;37033;49.994;21.992;2022-11-15T08:35:25;20.20;;;10.70;;
50709;SDS011;37033;49.994;21.992;2022-11-15T08:38:16;16.30;;;9.90;;
50709;SDS011;37033;49.994;21.992;2022-11-15T08:41:06;16.60;;;10.70;;
50709;SDS011;37033;49.994;21.992;2022-11-15T08:43:59;16.50;;;9.60;;
50709;SDS011;37033;49.994;21.992;2022-11-15T08:46:49;17.30;;;9.80;;
50709;SDS011;37033;49.994;21.992;2022-11-15T08:49:39;22.60;;;11.50;;
50709;SDS011;37033;49.994;21.992;2022-11-15T08:52:29;18.60;;;10.10;;
50709;SDS011;37033;49.994;21.992;2022-11-15T08:55:19;16.00;;;10.40;;
50709;SDS011;37033;49.994;21.992;2022-11-15T08:58:08;16.60;;;9.70;;
50709;SDS011;37033;49.994;21.992;2022-11-15T09:00:58;19.10;;;10.90;;
50709;SDS011;37033;49.994;21.992;2022-11-15T09:03:47;23.20;;;10.90;;
50709;SDS011;37033;49.994;21.992;2022-11-15T09:06:37;21.00;;;11.70;;
50709;SDS011;37033;49.994;21.992;2022-11-15T09:09:29;15.60;;;10.30;;
50709;SDS011;37033;49.994;21.992;2022-11-15T09:12:19;21.70;;;11.80;;
50709;SDS011;37033;49.994;21.992;2022-11-15T09:15:09;19.30;;;11.70;;
50709;SDS011;37033;49.994;21.992;2022-11-15T09:18:00;25.30;;;11.20;;
50709;SDS011;37033;49.994;21.992;2022-11-15T09:20:49;20.30;;;10.60;;
50709;SDS011;37033;49.994;21.992;2022-11-15T09:23:43;22.00;;;10.90;;
50709;SDS011;37033;49.994;21.992;2022-11-15T09:26:33;14.90;;;9.70;;
50709;SDS011;37033;49.994;21.992;2022-11-15T09:29:22;17.20;;;11.50;;
50709;SDS011;37033;49.994;21.992;2022-11-15T09:32:12;13.90;;;9.50;;
50709;SDS011;37033;49.994;21.992;2022-11-15T09:35:03;17.30;;;10.50;;
50709;SDS011;37033;49.994;21.992;2022-11-15T09:37:53;16.00;;;9.90;;
50709;SDS011;37033;49.994;21.992;2022-11-15T09:40:45;20.00;;;10.40;;
50709;SDS011;37033;49.994;21.992;2022-11-15T09:43:42;25.00;;;9.90;;
50709;SDS011;37033;49.994;21.992;2022-11-15T09:46:44;15.40;;;10.30;;
50709;SDS011;37033;49.994;21.992;2022-11-15T09:49:43;20.50;;;10.70;;
50709;SDS011;37033;49.994;21.992;2022-11-15T09:52:34;15.80;;;9.60;;
50709;SDS011;37033;49.994;21.992;2022-11-15T09:55:29;11.90;;;8.80;;
50709;SDS011;37033;49.994;21.992;2022-11-15T09:58:34;12.90;;;8.60;;
50709;SDS011;37033;49.994;21.992;2022-11-15T10:01:36;14.10;;;8.80;;
50709;SDS011;37033;49.994;21.992;2022-11-15T10:04:32;16.30;;;8.10;;
50709;SDS011;37033;49.994;21.992;2022-11-15T10:07:25;11.60;;;8.00;;
50709;SDS011;37033;49.994;21.992;2022-11-15T10:10:22;14.00;;;9.70;;
50709;SDS011;37033;49.994;21.992;2022-11-15T10:13:18;13.50;;;7.70;;
50709;SDS011;37033;49.994;21.992;2022-11-15T10:16:16;12.90;;;7.90;;
50709;SDS011;37033;49.994;21.992;2022-11-15T10:19:18;12.40;;;7.60;;
50709;SDS011;37033;49.994;21.992;2022-11-15T10:22:18;11.80;;;8.70;;
50709;SDS011;37033;49.994;21.992;2022-11-15T10:25:20;14.40;;;7.60;;
50709;SDS011;37033;49.994;21.992;2022-11-15T10:28:13;14.20;;;9.20;;
50709;SDS011;37033;49.994;21.992;2022-11-15T10:31:20;10.90;;;8.40;;
50709;SDS011;37033;49.994;21.992;2022-11-15T10:34:12;14.30;;;8.40;;
50709;SDS011;37033;49.994;21.992;2022-11-15T10:37:05;17.10;;;9.60;;
50709;SDS011;37033;49.994;21.992;2022-11-15T10:40:03;11.40;;;8.00;;
50709;SDS011;37033;49.994;21.992;2022-11-15T10:43:12;17.80;;;8.90;;
50709;SDS011;37033;49.994;21.992;2022-11-15T10:46:14;15.90;;;9.20;;
50709;SDS011;37033;49.994;21.992;2022-11-15T10:49:13;11.00;;;7.70;;
50709;SDS011;37033;49.994;21.992;2022-11-15T10:52:18;11.80;;;8.30;;
50709;SDS011;37033;49.994;21.992;2022-11-15T10:58:26;8.40;;;6.50;;
50709;SDS011;37033;49.994;21.992;2022-11-15T11:01:23;5.90;;;5.20;;
50709;SDS011;37033;49.994;21.992;2022-11-15T11:04:16;6.90;;;5.80;;
50709;SDS011;37033;49.994;21.992;2022-11-15T11:07:19;8.20;;;6.00;;
50709;SDS011;37033;49.994;21.992;2022-11-15T11:10:19;9.50;;;5.00;;
50709;SDS011;37033;49.994;21.992;2022-11-15T11:13:21;8.60;;;4.80;;
50709;SDS011;37033;49.994;21.992;2022-11-15T11:16:19;8.20;;;4.70;;
50709;SDS011;37033;49.994;21.992;2022-11-15T11:19:35;7.00;;;5.20;;
50709;SDS011;37033;49.994;21.992;2022-11-15T11:22:37;6.20;;;5.40;;
50709;SDS011;37033;49.994;21.992;2022-11-15T11:25:38;6.50;;;5.00;;
50709;SDS011;37033;49.994;21.992;2022-11-15T11:28:41;15.40;;;6.00;;
50709;SDS011;37033;49.994;21.992;2022-11-15T11:31:38;9.10;;;5.70;;
50709;SDS011;37033;49.994;21.992;2022-11-15T11:34:44;7.90;;;6.00;;
50709;SDS011;37033;49.994;21.992;2022-11-15T11:37:45;7.80;;;5.80;;
50709;SDS011;37033;49.994;21.992;2022-11-15T11:40:39;14.50;;;6.10;;
50709;SDS011;37033;49.994;21.992;2022-11-15T11:43:35;14.80;;;6.70;;
50709;SDS011;37033;49.994;21.992;2022-11-15T11:46:45;8.80;;;6.60;;
50709;SDS011;37033;49.994;21.992;2022-11-15T11:49:43;10.70;;;6.80;;
50709;SDS011;37033;49.994;21.992;2022-11-15T11:52:38;9.00;;;7.50;;
50709;SDS011;37033;49.994;21.992;2022-11-15T11:55:31;8.90;;;6.70;;
50709;SDS011;37033;49.994;21.992;2022-11-15T11:58:26;13.70;;;7.20;;
50709;SDS011;37033;49.994;21.992;2022-11-15T12:01:23;11.30;;;7.00;;
50709;SDS011;37033;49.994;21.992;2022-11-15T12:04:18;11.60;;;7.20;;
50709;SDS011;37033;49.994;21.992;2022-11-15T12:07:15;11.80;;;6.80;;
50709;SDS011;37033;49.994;21.992;2022-11-15T12:10:15;9.20;;;6.50;;
50709;SDS011;37033;49.994;21.992;2022-11-15T12:13:10;13.20;;;7.20;;
50709;SDS011;37033;49.994;21.992;2022-11-15T12:19:00;13.40;;;7.60;;
50709;SDS011;37033;49.994;21.992;2022-11-15T12:21:54;12.80;;;7.70;;
50709;SDS011;37033;49.994;21.992;2022-11-15T12:24:51;13.80;;;7.50;;
50709;SDS011;37033;49.994;21.992;2022-11-15T12:27:48;13.10;;;7.60;;
50709;SDS011;37033;49.994;21.992;2022-11-15T12:30:44;15.80;;;8.80;;
50709;SDS011;37033;49.994;21.992;2022-11-15T12:33:40;14.40;;;8.00;;
50709;SDS011;37033;49.994;21.992;2022-11-15T12:36:34;13.30;;;8.40;;
50709;SDS011;37033;49.994;21.992;2022-11-15T12:43:04;14.30;;;7.90;;
50709;SDS011;37033;49.994;21.992;2022-11-15T12:46:22;14.30;;;7.80;;
50709;SDS011;37033;49.994;21.992;2022-11-15T12:49:43;13.90;;;7.50;;
50709;SDS011;37033;49.994;21.992;2022-11-15T12:52:34;10.70;;;7.60;;
50709;SDS011;37033;49.994;21.992;2022-11-15T12:55:32;12.70;;;7.60;;
50709;SDS011;37033;49.994;21.992;2022-11-15T12:58:38;10.60;;;6.30;;
50709;SDS011;37033;49.994;21.992;2022-11-15T13:04:44;15.40;;;7.80;;
50709;SDS011;37033;49.994;21.992;2022-11-15T13:10:45;10.80;;;7.00;;
50709;SDS011;37033;49.994;21.992;2022-11-15T13:13:44;12.20;;;7.90;;
50709;SDS011;37033;49.994;21.992;2022-11-15T13:16:35;12.00;;;7.50;;
50709;SDS011;37033;49.994;21.992;2022-11-15T13:19:25;11.90;;;7.10;;
50709;SDS011;37033;49.994;21.992;2022-11-15T13:22:17;14.90;;;7.70;;
50709;SDS011;37033;49.994;21.992;2022-11-15T13:25:42;12.00;;;7.50;;
50709;SDS011;37033;49.994;21.992;2022-11-15T13:28:51;11.20;;;7.60;;
50709;SDS011;37033;49.994;21.992;2022-11-15T13:31:43;10.20;;;6.30;;
50709;SDS011;37033;49.994;21.992;2022-11-15T13:34:35;8.30;;;4.90;;
50709;SDS011;37033;49.994;21.992;2022-11-15T13:37:33;4.80;;;4.30;;
50709;SDS011;37033;49.994;21.992;2022-11-15T13:40:24;5.40;;;4.40;;
50709;SDS011;37033;49.994;21.992;2022-11-15T13:43:28;6.80;;;4.30;;
50709;SDS011;37033;49.994;21.992;2022-11-15T13:46:23;5.40;;;4.20;;
50709;SDS011;37033;49.994;21.992;2022-11-15T13:49:14;6.80;;;5.10;;
50709;SDS011;37033;49.994;21.992;2022-11-15T13:52:05;7.80;;;4.80;;
50709;SDS011;37033;49.994;21.992;2022-11-15T13:54:58;7.50;;;4.80;;
50709;SDS011;37033;49.994;21.992;2022-11-15T13:57:51;9.10;;;5.20;;
50709;SDS011;37033;49.994;21.992;2022-11-15T14:00:44;7.30;;;5.00;;
50709;SDS011;37033;49.994;21.992;2022-11-15T14:03:48;9.90;;;4.80;;
50709;SDS011;37033;49.994;21.992;2022-11-15T14:06:45;19.30;;;6.50;;
50709;SDS011;37033;49.994;21.992;2022-11-15T14:09:39;12.00;;;6.10;;
50709;SDS011;37033;49.994;21.992;2022-11-15T14:12:33;13.60;;;5.70;;
50709;SDS011;37033;49.994;21.992;2022-11-15T14:15:28;24.30;;;6.80;;
50709;SDS011;37033;49.994;21.992;2022-11-15T14:21:29;31.50;;;9.20;;
50709;SDS011;37033;49.994;21.992;2022-11-15T14:24:21;28.60;;;11.00;;
50709;SDS011;37033;49.994;21.992;2022-11-15T14:27:19;20.40;;;8.20;;
50709;SDS011;37033;49.994;21.992;2022-11-15T14:30:16;42.50;;;10.10;;
50709;SDS011;37033;49.994;21.992;2022-11-15T14:33:17;118.80;;;14.40;;
50709;SDS011;37033;49.994;21.992;2022-11-15T14:36:13;63.00;;;13.00;;
50709;SDS011;37033;49.994;21.992;2022-11-15T14:39:04;57.40;;;11.40;;
50709;SDS011;37033;49.994;21.992;2022-11-15T14:41:55;49.10;;;8.80;;
50709;SDS011;37033;49.994;21.992;2022-11-15T14:44:46;101.70;;;14.10;;
50709;SDS011;37033;49.994;21.992;2022-11-15T14:47:37;36.40;;;9.60;;
50709;SDS011;37033;49.994;21.992;2022-11-15T14:50:27;27.70;;;9.00;;
50709;SDS011;37033;49.994;21.992;2022-11-15T14:53:17;24.00;;;9.30;;
50709;SDS011;37033;49.994;21.992;2022-11-15T14:56:09;89.10;;;13.40;;
50709;SDS011;37033;49.994;21.992;2022-11-15T14:58:59;109.10;;;16.90;;
50709;SDS011;37033;49.994;21.992;2022-11-15T15:01:49;91.60;;;16.50;;
50709;SDS011;37033;49.994;21.992;2022-11-15T15:04:39;70.70;;;15.10;;
50709;SDS011;37033;49.994;21.992;2022-11-15T15:07:30;46.00;;;11.80;;
50709;SDS011;37033;49.994;21.992;2022-11-15T15:10:21;57.30;;;13.10;;
50709;SDS011;37033;49.994;21.992;2022-11-15T15:13:15;67.80;;;15.20;;
50709;SDS011;37033;49.994;21.992;2022-11-15T15:16:08;55.50;;;15.70;;
50709;SDS011;37033;49.994;21.992;2022-11-15T15:18:58;64.60;;;17.20;;
50709;SDS011;37033;49.994;21.992;2022-11-15T15:21:48;74.30;;;21.80;;
50709;SDS011;37033;49.994;21.992;2022-11-15T15:24:39;43.30;;;17.10;;
50709;SDS011;37033;49.994;21.992;2022-11-15T15:27:29;51.60;;;17.30;;
50709;SDS011;37033;49.994;21.992;2022-11-15T15:30:20;42.10;;;14.60;;
50709;SDS011;37033;49.994;21.992;2022-11-15T15:33:11;73.10;;;16.20;;
50709;SDS011;37033;49.994;21.992;2022-11-15T15:36:01;66.50;;;19.20;;
50709;SDS011;37033;49.994;21.992;2022-11-15T15:38:53;92.80;;;20.70;;
50709;SDS011;37033;49.994;21.992;2022-11-15T15:41:43;81.50;;;22.50;;
50709;SDS011;37033;49.994;21.992;2022-11-15T15:44:34;64.90;;;17.10;;
50709;SDS011;37033;49.994;21.992;2022-11-15T15:47:24;61.80;;;17.90;;
50709;SDS011;37033;49.994;21.992;2022-11-15T15:50:17;54.30;;;20.20;;
50709;SDS011;37033;49.994;21.992;2022-11-15T15:53:13;68.50;;;24.20;;
50709;SDS011;37033;49.994;21.992;2022-11-15T15:56:04;86.70;;;36.10;;
50709;SDS011;37033;49.994;21.992;2022-11-15T15:58:56;111.90;;;49.20;;
50709;SDS011;37033;49.994;21.992;2022-11-15T16:01:46;116.40;;;47.80;;
50709;SDS011;37033;49.994;21.992;2022-11-15T16:04:36;121.50;;;41.90;;
50709;SDS011;37033;49.994;21.992;2022-11-15T16:07:27;90.90;;;36.10;;
50709;SDS011;37033;49.994;21.992;2022-11-15T16:10:20;102.40;;;42.50;;
50709;SDS011;37033;49.994;21.992;2022-11-15T16:13:12;102.10;;;43.70;;
50709;SDS011;37033;49.994;21.992;2022-11-15T16:16:04;99.20;;;43.40;;
50709;SDS011;37033;49.994;21.992;2022-11-15T16:19:01;83.40;;;38.60;;
50709;SDS011;37033;49.994;21.992;2022-11-15T16:21:51;93.20;;;37.50;;
50709;SDS011;37033;49.994;21.992;2022-11-15T16:24:41;87.90;;;38.70;;
50709;SDS011;37033;49.994;21.992;2022-11-15T16:27:32;78.90;;;35.90;;
50709;SDS011;37033;49.994;21.992;2022-11-15T16:30:24;74.70;;;34.50;;
50709;SDS011;37033;49.994;21.992;2022-11-15T16:33:15;74.20;;;33.60;;
50709;SDS011;37033;49.994;21.992;2022-11-15T16:36:12;64.30;;;30.00;;
50709;SDS011;37033;49.994;21.992;2022-11-15T16:39:08;56.80;;;29.40;;
50709;SDS011;37033;49.994;21.992;2022-11-15T16:42:01;68.40;;;29.00;;
50709;SDS011;37033;49.994;21.992;2022-11-15T16:44:52;68.20;;;29.90;;
50709;SDS011;37033;49.994;21.992;2022-11-15T16:47:42;88.60;;;39.00;;
50709;SDS011;37033;49.994;21.992;2022-11-15T16:50:33;105.40;;;40.10;;
50709;SDS011;37033;49.994;21.992;2022-11-15T16:53:29;114.90;;;42.80;;
50709;SDS011;37033;49.994;21.992;2022-11-15T16:56:22;105.60;;;40.00;;
50709;SDS011;37033;49.994;21.992;2022-11-15T16:59:16;80.20;;;35.30;;
50709;SDS011;37033;49.994;21.992;2022-11-15T17:02:10;63.80;;;27.70;;
50709;SDS011;37033;49.994;21.992;2022-11-15T17:05:00;69.30;;;31.30;;
50709;SDS011;37033;49.994;21.992;2022-11-15T17:07:51;68.90;;;31.80;;
50709;SDS011;37033;49.994;21.992;2022-11-15T17:10:41;60.30;;;28.50;;
50709;SDS011;37033;49.994;21.992;2022-11-15T17:13:31;65.50;;;27.90;;
50709;SDS011;37033;49.994;21.992;2022-11-15T17:16:21;81.60;;;31.00;;